sensor_id;sensor_type;location;lat;lon;timestamp;P1;durP1;ratioP1;P2;durP2;ratioP2
34146;SDS011;20423;49.448;9.056;2022-12-17T00:00:44;33.53;;;13.70;;
34146;SDS011;20423;49.448;9.056;2022-12-17T00:03:28;39.67;;;13.77;;
34146;SDS011;20423;49.448;9.056;2022-12-17T00:06:12;35.85;;;13.02;;
34146;SDS011;20423;49.448;9.056;2022-12-17T00:08:57;32.40;;;12.65;;
34146;SDS011;20423;49.448;9.056;2022-12-17T00:11:41;42.80;;;13.15;;
34146;SDS011;20423;49.448;9.056;2022-12-17T00:14:30;35.47;;;13.82;;
34146;SDS011;20423;49.448;9.056;2022-12-17T00:17:14;35.88;;;13.60;;
34146;SDS011;20423;49.448;9.056;2022-12-17T00:19:58;43.65;;;13.80;;
34146;SDS011;20423;49.448;9.056;2022-12-17T00:22:45;37.85;;;15.02;;
34146;SDS011;20423;49.448;9.056;2022-12-17T00:25:29;43.28;;;15.10;;
34146;SDS011;20423;49.448;9.056;2022-12-17T00:28:14;36.50;;;14.23;;
34146;SDS011;20423;49.448;9.056;2022-12-17T00:31:00;43.63;;;14.65;;
34146;SDS011;20423;49.448;9.056;2022-12-17T00:33:45;29.63;;;11.68;;
34146;SDS011;20423;49.448;9.056;2022-12-17T00:36:30;31.55;;;11.77;;
34146;SDS011;20423;49.448;9.056;2022-12-17T00:39:14;27.63;;;10.70;;
34146;SDS011;20423;49.448;9.056;2022-12-17T00:41:58;25.77;;;10.95;;
34146;SDS011;20423;49.448;9.056;2022-12-17T00:44:42;23.70;;;9.32;;
34146;SDS011;20423;49.448;9.056;2022-12-17T00:47:26;26.77;;;10.05;;
34146;SDS011;20423;49.448;9.056;2022-12-17T00:50:11;33.00;;;9.52;;
34146;SDS011;20423;49.448;9.056;2022-12-17T00:52:55;25.65;;;9.95;;
34146;SDS011;20423;49.448;9.056;2022-12-17T00:55:40;29.45;;;9.55;;
34146;SDS011;20423;49.448;9.056;2022-12-17T00:58:25;27.85;;;10.65;;
34146;SDS011;20423;49.448;9.056;2022-12-17T01:01:09;25.98;;;9.27;;
34146;SDS011;20423;49.448;9.056;2022-12-17T01:03:53;28.65;;;10.23;;
34146;SDS011;20423;49.448;9.056;2022-12-17T01:06:37;30.73;;;10.02;;
34146;SDS011;20423;49.448;9.056;2022-12-17T01:09:21;36.42;;;10.50;;
34146;SDS011;20423;49.448;9.056;2022-12-17T01:12:06;21.83;;;8.70;;
34146;SDS011;20423;49.448;9.056;2022-12-17T01:14:52;19.65;;;8.57;;
34146;SDS011;20423;49.448;9.056;2022-12-17T01:17:36;29.63;;;9.77;;
34146;SDS011;20423;49.448;9.056;2022-12-17T01:20:20;18.02;;;8.10;;
34146;SDS011;20423;49.448;9.056;2022-12-17T01:23:08;19.60;;;7.85;;
34146;SDS011;20423;49.448;9.056;2022-12-17T01:26:10;20.50;;;8.15;;
34146;SDS011;20423;49.448;9.056;2022-12-17T01:28:58;17.55;;;6.53;;
34146;SDS011;20423;49.448;9.056;2022-12-17T01:34:59;17.35;;;6.03;;
34146;SDS011;20423;49.448;9.056;2022-12-17T01:37:44;18.92;;;5.38;;
34146;SDS011;20423;49.448;9.056;2022-12-17T01:40:28;19.10;;;5.03;;
34146;SDS011;20423;49.448;9.056;2022-12-17T01:43:13;14.38;;;6.03;;
34146;SDS011;20423;49.448;9.056;2022-12-17T01:46:13;16.63;;;5.77;;
34146;SDS011;20423;49.448;9.056;2022-12-17T01:49:05;16.92;;;5.03;;
34146;SDS011;20423;49.448;9.056;2022-12-17T01:51:51;10.70;;;4.43;;
34146;SDS011;20423;49.448;9.056;2022-12-17T01:54:36;13.00;;;4.95;;
34146;SDS011;20423;49.448;9.056;2022-12-17T01:57:22;16.73;;;5.22;;
34146;SDS011;20423;49.448;9.056;2022-12-17T02:00:09;20.30;;;5.75;;
34146;SDS011;20423;49.448;9.056;2022-12-17T02:02:56;15.68;;;5.43;;
34146;SDS011;20423;49.448;9.056;2022-12-17T02:05:49;11.48;;;4.68;;
34146;SDS011;20423;49.448;9.056;2022-12-17T02:09:31;12.23;;;4.88;;
34146;SDS011;20423;49.448;9.056;2022-12-17T02:12:40;10.52;;;4.70;;
34146;SDS011;20423;49.448;9.056;2022-12-17T02:15:31;15.15;;;5.00;;
34146;SDS011;20423;49.448;9.056;2022-12-17T02:18:30;16.30;;;5.65;;
34146;SDS011;20423;49.448;9.056;2022-12-17T02:21:30;12.45;;;4.82;;
34146;SDS011;20423;49.448;9.056;2022-12-17T02:24:52;14.85;;;5.38;;
34146;SDS011;20423;49.448;9.056;2022-12-17T02:27:30;18.63;;;5.85;;
34146;SDS011;20423;49.448;9.056;2022-12-17T02:30:17;22.45;;;6.25;;
34146;SDS011;20423;49.448;9.056;2022-12-17T02:33:01;14.25;;;5.05;;
34146;SDS011;20423;49.448;9.056;2022-12-17T02:35:50;9.40;;;4.53;;
34146;SDS011;20423;49.448;9.056;2022-12-17T02:38:42;15.00;;;5.05;;
34146;SDS011;20423;49.448;9.056;2022-12-17T02:41:28;11.82;;;4.57;;
34146;SDS011;20423;49.448;9.056;2022-12-17T02:44:17;17.35;;;5.00;;
34146;SDS011;20423;49.448;9.056;2022-12-17T02:47:06;14.77;;;5.35;;
34146;SDS011;20423;49.448;9.056;2022-12-17T02:49:52;14.52;;;5.18;;
34146;SDS011;20423;49.448;9.056;2022-12-17T02:52:45;13.30;;;5.05;;
34146;SDS011;20423;49.448;9.056;2022-12-17T02:55:30;11.63;;;4.78;;
34146;SDS011;20423;49.448;9.056;2022-12-17T02:58:15;11.90;;;4.72;;
34146;SDS011;20423;49.448;9.056;2022-12-17T03:01:15;17.30;;;5.78;;
34146;SDS011;20423;49.448;9.056;2022-12-17T03:04:01;16.38;;;6.03;;
34146;SDS011;20423;49.448;9.056;2022-12-17T03:06:45;16.73;;;5.88;;
34146;SDS011;20423;49.448;9.056;2022-12-17T03:09:31;15.10;;;4.55;;
34146;SDS011;20423;49.448;9.056;2022-12-17T03:12:16;15.90;;;5.70;;
34146;SDS011;20423;49.448;9.056;2022-12-17T03:15:00;13.18;;;5.57;;
34146;SDS011;20423;49.448;9.056;2022-12-17T03:17:44;13.32;;;5.85;;
34146;SDS011;20423;49.448;9.056;2022-12-17T03:20:28;15.57;;;6.38;;
34146;SDS011;20423;49.448;9.056;2022-12-17T03:23:12;15.32;;;6.00;;
34146;SDS011;20423;49.448;9.056;2022-12-17T03:25:57;14.63;;;5.88;;
34146;SDS011;20423;49.448;9.056;2022-12-17T03:28:43;15.90;;;6.28;;
34146;SDS011;20423;49.448;9.056;2022-12-17T03:31:27;17.55;;;5.53;;
34146;SDS011;20423;49.448;9.056;2022-12-17T03:34:11;13.00;;;5.85;;
34146;SDS011;20423;49.448;9.056;2022-12-17T03:36:55;9.30;;;4.82;;
34146;SDS011;20423;49.448;9.056;2022-12-17T03:39:39;18.63;;;5.15;;
34146;SDS011;20423;49.448;9.056;2022-12-17T03:42:24;12.55;;;4.93;;
34146;SDS011;20423;49.448;9.056;2022-12-17T03:48:14;13.80;;;4.40;;
34146;SDS011;20423;49.448;9.056;2022-12-17T03:50:59;11.25;;;4.72;;
34146;SDS011;20423;49.448;9.056;2022-12-17T03:53:44;10.18;;;4.22;;
34146;SDS011;20423;49.448;9.056;2022-12-17T03:56:28;12.98;;;4.07;;
34146;SDS011;20423;49.448;9.056;2022-12-17T03:59:13;16.17;;;4.20;;
34146;SDS011;20423;49.448;9.056;2022-12-17T04:01:57;9.85;;;3.70;;
34146;SDS011;20423;49.448;9.056;2022-12-17T04:04:42;10.07;;;3.97;;
34146;SDS011;20423;49.448;9.056;2022-12-17T04:07:26;9.00;;;4.07;;
34146;SDS011;20423;49.448;9.056;2022-12-17T04:10:10;10.30;;;4.75;;
34146;SDS011;20423;49.448;9.056;2022-12-17T04:12:54;12.32;;;3.95;;
34146;SDS011;20423;49.448;9.056;2022-12-17T04:15:39;10.30;;;3.90;;
34146;SDS011;20423;49.448;9.056;2022-12-17T04:18:23;13.82;;;3.92;;
34146;SDS011;20423;49.448;9.056;2022-12-17T04:21:07;10.50;;;3.80;;
34146;SDS011;20423;49.448;9.056;2022-12-17T04:23:51;6.15;;;2.72;;
34146;SDS011;20423;49.448;9.056;2022-12-17T04:26:35;8.27;;;3.78;;
34146;SDS011;20423;49.448;9.056;2022-12-17T04:29:19;9.45;;;4.10;;
34146;SDS011;20423;49.448;9.056;2022-12-17T04:32:04;8.30;;;3.60;;
34146;SDS011;20423;49.448;9.056;2022-12-17T04:34:48;7.90;;;3.63;;
34146;SDS011;20423;49.448;9.056;2022-12-17T04:37:32;11.50;;;4.20;;
34146;SDS011;20423;49.448;9.056;2022-12-17T04:40:22;11.30;;;4.47;;
34146;SDS011;20423;49.448;9.056;2022-12-17T04:43:07;11.23;;;4.53;;
34146;SDS011;20423;49.448;9.056;2022-12-17T04:45:52;11.93;;;4.18;;
34146;SDS011;20423;49.448;9.056;2022-12-17T04:48:36;10.07;;;3.83;;
34146;SDS011;20423;49.448;9.056;2022-12-17T04:51:20;14.52;;;4.15;;
34146;SDS011;20423;49.448;9.056;2022-12-17T04:54:04;7.28;;;3.83;;
34146;SDS011;20423;49.448;9.056;2022-12-17T04:56:52;9.45;;;3.58;;
34146;SDS011;20423;49.448;9.056;2022-12-17T04:59:36;11.35;;;3.78;;
34146;SDS011;20423;49.448;9.056;2022-12-17T05:02:20;10.02;;;4.00;;
34146;SDS011;20423;49.448;9.056;2022-12-17T05:05:05;12.88;;;4.50;;
34146;SDS011;20423;49.448;9.056;2022-12-17T05:07:53;10.68;;;4.20;;
34146;SDS011;20423;49.448;9.056;2022-12-17T05:10:38;11.98;;;4.45;;
34146;SDS011;20423;49.448;9.056;2022-12-17T05:13:22;13.15;;;5.95;;
34146;SDS011;20423;49.448;9.056;2022-12-17T05:16:07;18.08;;;5.55;;
34146;SDS011;20423;49.448;9.056;2022-12-17T05:18:51;20.73;;;6.07;;
34146;SDS011;20423;49.448;9.056;2022-12-17T05:21:35;13.45;;;4.70;;
34146;SDS011;20423;49.448;9.056;2022-12-17T05:24:19;12.00;;;4.05;;
34146;SDS011;20423;49.448;9.056;2022-12-17T05:27:03;10.68;;;3.90;;
34146;SDS011;20423;49.448;9.056;2022-12-17T05:29:47;9.50;;;3.70;;
34146;SDS011;20423;49.448;9.056;2022-12-17T05:32:32;9.50;;;4.10;;
34146;SDS011;20423;49.448;9.056;2022-12-17T05:35:16;14.32;;;5.13;;
34146;SDS011;20423;49.448;9.056;2022-12-17T05:38:04;9.77;;;3.83;;
34146;SDS011;20423;49.448;9.056;2022-12-17T05:40:49;12.07;;;4.60;;
34146;SDS011;20423;49.448;9.056;2022-12-17T05:43:33;15.45;;;4.13;;
34146;SDS011;20423;49.448;9.056;2022-12-17T05:46:17;7.18;;;3.53;;
34146;SDS011;20423;49.448;9.056;2022-12-17T05:49:02;10.35;;;3.50;;
34146;SDS011;20423;49.448;9.056;2022-12-17T05:51:46;8.27;;;3.42;;
34146;SDS011;20423;49.448;9.056;2022-12-17T05:54:30;9.38;;;3.60;;
34146;SDS011;20423;49.448;9.056;2022-12-17T05:57:16;8.95;;;2.97;;
34146;SDS011;20423;49.448;9.056;2022-12-17T06:00:00;10.07;;;4.10;;
34146;SDS011;20423;49.448;9.056;2022-12-17T06:02:44;7.68;;;3.30;;
34146;SDS011;20423;49.448;9.056;2022-12-17T06:05:28;11.77;;;3.97;;
34146;SDS011;20423;49.448;9.056;2022-12-17T06:08:13;12.13;;;3.65;;
34146;SDS011;20423;49.448;9.056;2022-12-17T06:10:58;14.98;;;3.00;;
34146;SDS011;20423;49.448;9.056;2022-12-17T06:13:42;14.43;;;4.22;;
34146;SDS011;20423;49.448;9.056;2022-12-17T06:16:27;9.77;;;3.40;;
34146;SDS011;20423;49.448;9.056;2022-12-17T06:19:11;9.13;;;3.45;;
34146;SDS011;20423;49.448;9.056;2022-12-17T06:21:55;9.75;;;3.90;;
34146;SDS011;20423;49.448;9.056;2022-12-17T06:24:39;7.07;;;3.50;;
34146;SDS011;20423;49.448;9.056;2022-12-17T06:27:24;9.43;;;3.78;;
34146;SDS011;20423;49.448;9.056;2022-12-17T06:30:08;18.60;;;5.43;;
34146;SDS011;20423;49.448;9.056;2022-12-17T06:33:01;18.67;;;6.22;;
34146;SDS011;20423;49.448;9.056;2022-12-17T06:35:50;18.52;;;6.57;;
34146;SDS011;20423;49.448;9.056;2022-12-17T06:38:36;16.30;;;6.72;;
34146;SDS011;20423;49.448;9.056;2022-12-17T06:41:20;17.58;;;6.05;;
34146;SDS011;20423;49.448;9.056;2022-12-17T06:44:04;19.00;;;5.65;;
34146;SDS011;20423;49.448;9.056;2022-12-17T06:46:48;23.65;;;5.90;;
34146;SDS011;20423;49.448;9.056;2022-12-17T06:49:32;18.02;;;6.22;;
34146;SDS011;20423;49.448;9.056;2022-12-17T06:52:17;22.20;;;6.30;;
34146;SDS011;20423;49.448;9.056;2022-12-17T06:55:01;14.93;;;5.72;;
34146;SDS011;20423;49.448;9.056;2022-12-17T06:57:45;11.95;;;4.35;;
34146;SDS011;20423;49.448;9.056;2022-12-17T07:00:29;9.38;;;4.35;;
34146;SDS011;20423;49.448;9.056;2022-12-17T07:03:13;11.48;;;5.55;;
34146;SDS011;20423;49.448;9.056;2022-12-17T07:06:00;11.82;;;4.88;;
34146;SDS011;20423;49.448;9.056;2022-12-17T07:08:45;16.95;;;6.68;;
34146;SDS011;20423;49.448;9.056;2022-12-17T07:11:29;14.57;;;6.60;;
34146;SDS011;20423;49.448;9.056;2022-12-17T07:14:14;24.48;;;6.22;;
34146;SDS011;20423;49.448;9.056;2022-12-17T07:16:58;13.30;;;5.82;;
34146;SDS011;20423;49.448;9.056;2022-12-17T07:19:42;12.55;;;5.20;;
34146;SDS011;20423;49.448;9.056;2022-12-17T07:22:26;18.20;;;5.20;;
34146;SDS011;20423;49.448;9.056;2022-12-17T07:25:10;19.70;;;7.47;;
34146;SDS011;20423;49.448;9.056;2022-12-17T07:27:55;10.23;;;5.43;;
34146;SDS011;20423;49.448;9.056;2022-12-17T07:30:40;21.10;;;5.97;;
34146;SDS011;20423;49.448;9.056;2022-12-17T07:33:24;8.38;;;4.88;;
34146;SDS011;20423;49.448;9.056;2022-12-17T07:36:09;11.25;;;6.20;;
34146;SDS011;20423;49.448;9.056;2022-12-17T07:38:53;17.98;;;7.07;;
34146;SDS011;20423;49.448;9.056;2022-12-17T07:41:37;20.05;;;6.28;;
34146;SDS011;20423;49.448;9.056;2022-12-17T07:44:21;14.93;;;6.43;;
34146;SDS011;20423;49.448;9.056;2022-12-17T07:47:06;14.10;;;6.05;;
34146;SDS011;20423;49.448;9.056;2022-12-17T07:49:50;15.63;;;5.85;;
34146;SDS011;20423;49.448;9.056;2022-12-17T07:52:34;17.13;;;6.53;;
34146;SDS011;20423;49.448;9.056;2022-12-17T07:55:18;12.38;;;6.25;;
34146;SDS011;20423;49.448;9.056;2022-12-17T07:58:03;19.52;;;6.25;;
34146;SDS011;20423;49.448;9.056;2022-12-17T08:00:49;26.90;;;11.80;;
34146;SDS011;20423;49.448;9.056;2022-12-17T08:03:34;33.88;;;12.32;;
34146;SDS011;20423;49.448;9.056;2022-12-17T08:06:19;38.20;;;13.57;;
34146;SDS011;20423;49.448;9.056;2022-12-17T08:09:03;35.20;;;15.57;;
34146;SDS011;20423;49.448;9.056;2022-12-17T08:11:48;38.00;;;15.10;;
34146;SDS011;20423;49.448;9.056;2022-12-17T08:14:32;52.13;;;17.52;;
34146;SDS011;20423;49.448;9.056;2022-12-17T08:17:16;50.88;;;21.05;;
34146;SDS011;20423;49.448;9.056;2022-12-17T08:20:01;57.08;;;21.83;;
34146;SDS011;20423;49.448;9.056;2022-12-17T08:22:45;51.50;;;21.45;;
34146;SDS011;20423;49.448;9.056;2022-12-17T08:25:29;40.08;;;17.58;;
34146;SDS011;20423;49.448;9.056;2022-12-17T08:28:14;50.70;;;17.67;;
34146;SDS011;20423;49.448;9.056;2022-12-17T08:30:59;50.25;;;19.35;;
34146;SDS011;20423;49.448;9.056;2022-12-17T08:33:43;53.28;;;21.65;;
34146;SDS011;20423;49.448;9.056;2022-12-17T08:36:27;64.43;;;26.27;;
34146;SDS011;20423;49.448;9.056;2022-12-17T08:39:12;68.30;;;30.70;;
34146;SDS011;20423;49.448;9.056;2022-12-17T08:41:56;131.75;;;48.22;;
34146;SDS011;20423;49.448;9.056;2022-12-17T08:44:40;149.50;;;55.50;;
34146;SDS011;20423;49.448;9.056;2022-12-17T08:47:25;120.75;;;45.97;;
34146;SDS011;20423;49.448;9.056;2022-12-17T08:50:12;80.40;;;35.10;;
34146;SDS011;20423;49.448;9.056;2022-12-17T08:52:59;58.55;;;26.35;;
34146;SDS011;20423;49.448;9.056;2022-12-17T08:55:45;41.38;;;19.05;;
34146;SDS011;20423;49.448;9.056;2022-12-17T08:58:29;41.35;;;18.58;;
34146;SDS011;20423;49.448;9.056;2022-12-17T09:01:13;38.42;;;15.98;;
34146;SDS011;20423;49.448;9.056;2022-12-17T09:03:57;44.15;;;16.98;;
34146;SDS011;20423;49.448;9.056;2022-12-17T09:06:42;51.33;;;19.52;;
34146;SDS011;20423;49.448;9.056;2022-12-17T09:09:27;44.30;;;18.23;;
34146;SDS011;20423;49.448;9.056;2022-12-17T09:12:12;27.00;;;12.55;;
34146;SDS011;20423;49.448;9.056;2022-12-17T09:14:56;20.77;;;9.27;;
34146;SDS011;20423;49.448;9.056;2022-12-17T09:17:40;18.88;;;7.72;;
34146;SDS011;20423;49.448;9.056;2022-12-17T09:20:24;17.58;;;7.32;;
34146;SDS011;20423;49.448;9.056;2022-12-17T09:23:09;14.88;;;6.18;;
34146;SDS011;20423;49.448;9.056;2022-12-17T09:25:57;13.40;;;6.60;;
34146;SDS011;20423;49.448;9.056;2022-12-17T09:28:41;16.88;;;6.50;;
34146;SDS011;20423;49.448;9.056;2022-12-17T09:31:25;13.75;;;6.00;;
34146;SDS011;20423;49.448;9.056;2022-12-17T09:34:09;13.73;;;6.53;;
34146;SDS011;20423;49.448;9.056;2022-12-17T09:36:54;13.02;;;6.40;;
34146;SDS011;20423;49.448;9.056;2022-12-17T09:39:38;16.25;;;7.28;;
34146;SDS011;20423;49.448;9.056;2022-12-17T09:46:00;11.77;;;5.43;;
34146;SDS011;20423;49.448;9.056;2022-12-17T09:49:02;10.77;;;5.28;;
34146;SDS011;20423;49.448;9.056;2022-12-17T09:51:55;11.02;;;5.55;;
34146;SDS011;20423;49.448;9.056;2022-12-17T09:54:43;13.30;;;6.32;;
34146;SDS011;20423;49.448;9.056;2022-12-17T09:57:32;19.95;;;8.77;;
34146;SDS011;20423;49.448;9.056;2022-12-17T10:00:23;14.98;;;7.50;;
34146;SDS011;20423;49.448;9.056;2022-12-17T10:03:13;17.13;;;6.38;;
34146;SDS011;20423;49.448;9.056;2022-12-17T10:06:02;15.43;;;7.32;;
34146;SDS011;20423;49.448;9.056;2022-12-17T10:08:56;56.60;;;20.67;;
34146;SDS011;20423;49.448;9.056;2022-12-17T10:11:44;41.67;;;14.45;;
34146;SDS011;20423;49.448;9.056;2022-12-17T10:14:28;15.27;;;5.97;;
34146;SDS011;20423;49.448;9.056;2022-12-17T10:17:17;19.17;;;9.15;;
34146;SDS011;20423;49.448;9.056;2022-12-17T10:20:13;14.18;;;7.38;;
34146;SDS011;20423;49.448;9.056;2022-12-17T10:23:21;11.35;;;5.53;;
34146;SDS011;20423;49.448;9.056;2022-12-17T10:26:12;7.28;;;4.05;;
34146;SDS011;20423;49.448;9.056;2022-12-17T10:29:04;9.25;;;5.22;;
34146;SDS011;20423;49.448;9.056;2022-12-17T10:31:52;18.65;;;8.32;;
34146;SDS011;20423;49.448;9.056;2022-12-17T10:38:09;13.15;;;5.30;;
34146;SDS011;20423;49.448;9.056;2022-12-17T10:40:54;11.10;;;5.13;;
34146;SDS011;20423;49.448;9.056;2022-12-17T10:43:40;10.73;;;4.28;;
34146;SDS011;20423;49.448;9.056;2022-12-17T10:46:29;18.30;;;7.72;;
34146;SDS011;20423;49.448;9.056;2022-12-17T10:52:05;19.02;;;7.00;;
34146;SDS011;20423;49.448;9.056;2022-12-17T10:55:17;18.15;;;7.90;;
34146;SDS011;20423;49.448;9.056;2022-12-17T10:58:20;14.85;;;7.00;;
34146;SDS011;20423;49.448;9.056;2022-12-17T11:01:08;22.63;;;8.40;;
34146;SDS011;20423;49.448;9.056;2022-12-17T11:03:55;20.10;;;8.48;;
34146;SDS011;20423;49.448;9.056;2022-12-17T11:06:42;23.48;;;9.88;;
34146;SDS011;20423;49.448;9.056;2022-12-17T11:12:33;12.73;;;6.40;;
34146;SDS011;20423;49.448;9.056;2022-12-17T11:15:27;15.02;;;6.70;;
34146;SDS011;20423;49.448;9.056;2022-12-17T11:18:26;14.38;;;6.57;;
34146;SDS011;20423;49.448;9.056;2022-12-17T11:21:20;16.85;;;6.80;;
34146;SDS011;20423;49.448;9.056;2022-12-17T11:24:16;14.23;;;6.10;;
34146;SDS011;20423;49.448;9.056;2022-12-17T11:27:06;13.23;;;7.38;;
34146;SDS011;20423;49.448;9.056;2022-12-17T11:29:52;13.45;;;6.75;;
34146;SDS011;20423;49.448;9.056;2022-12-17T11:32:40;18.40;;;7.95;;
34146;SDS011;20423;49.448;9.056;2022-12-17T11:39:24;16.80;;;7.60;;
34146;SDS011;20423;49.448;9.056;2022-12-17T11:42:19;22.33;;;10.77;;
34146;SDS011;20423;49.448;9.056;2022-12-17T11:45:45;17.05;;;8.88;;
34146;SDS011;20423;49.448;9.056;2022-12-17T11:51:34;25.98;;;9.88;;
34146;SDS011;20423;49.448;9.056;2022-12-17T11:54:49;18.05;;;10.27;;
34146;SDS011;20423;49.448;9.056;2022-12-17T11:57:41;22.98;;;12.05;;
34146;SDS011;20423;49.448;9.056;2022-12-17T12:04:27;24.25;;;11.27;;
34146;SDS011;20423;49.448;9.056;2022-12-17T12:07:01;22.02;;;11.40;;
34146;SDS011;20423;49.448;9.056;2022-12-17T12:10:39;30.38;;;11.93;;
34146;SDS011;20423;49.448;9.056;2022-12-17T12:14:18;22.90;;;11.88;;
34146;SDS011;20423;49.448;9.056;2022-12-17T12:16:55;26.10;;;13.05;;
34146;SDS011;20423;49.448;9.056;2022-12-17T12:19:48;31.98;;;14.30;;
34146;SDS011;20423;49.448;9.056;2022-12-17T12:22:37;38.78;;;15.77;;
34146;SDS011;20423;49.448;9.056;2022-12-17T12:32:14;30.65;;;13.73;;
34146;SDS011;20423;49.448;9.056;2022-12-17T12:35:24;24.33;;;11.35;;
34146;SDS011;20423;49.448;9.056;2022-12-17T12:38:14;25.27;;;10.50;;
34146;SDS011;20423;49.448;9.056;2022-12-17T12:41:15;16.85;;;8.30;;
34146;SDS011;20423;49.448;9.056;2022-12-17T12:44:16;25.73;;;10.52;;
34146;SDS011;20423;49.448;9.056;2022-12-17T12:47:12;20.30;;;9.48;;
34146;SDS011;20423;49.448;9.056;2022-12-17T12:50:17;27.33;;;11.85;;
34146;SDS011;20423;49.448;9.056;2022-12-17T12:54:00;17.35;;;8.38;;
34146;SDS011;20423;49.448;9.056;2022-12-17T12:57:02;16.35;;;8.23;;
34146;SDS011;20423;49.448;9.056;2022-12-17T12:59:47;19.77;;;8.07;;
34146;SDS011;20423;49.448;9.056;2022-12-17T13:02:32;24.48;;;8.63;;
34146;SDS011;20423;49.448;9.056;2022-12-17T13:05:25;16.38;;;7.85;;
34146;SDS011;20423;49.448;9.056;2022-12-17T13:10:33;16.20;;;8.13;;
34146;SDS011;20423;49.448;9.056;2022-12-17T13:13:44;25.50;;;12.45;;
34146;SDS011;20423;49.448;9.056;2022-12-17T13:16:01;18.15;;;9.57;;
34146;SDS011;20423;49.448;9.056;2022-12-17T13:18:39;18.15;;;7.60;;
34146;SDS011;20423;49.448;9.056;2022-12-17T13:21:22;20.80;;;8.25;;
34146;SDS011;20423;49.448;9.056;2022-12-17T13:23:50;22.00;;;10.15;;
34146;SDS011;20423;49.448;9.056;2022-12-17T13:29:12;17.13;;;7.43;;
34146;SDS011;20423;49.448;9.056;2022-12-17T13:37:20;18.70;;;8.00;;
34146;SDS011;20423;49.448;9.056;2022-12-17T13:40:36;27.27;;;8.88;;
34146;SDS011;20423;49.448;9.056;2022-12-17T13:43:19;21.50;;;9.50;;
34146;SDS011;20423;49.448;9.056;2022-12-17T13:45:49;15.07;;;8.10;;
34146;SDS011;20423;49.448;9.056;2022-12-17T13:48:20;18.23;;;8.77;;
34146;SDS011;20423;49.448;9.056;2022-12-17T13:50:55;23.15;;;9.27;;
34146;SDS011;20423;49.448;9.056;2022-12-17T13:53:24;21.15;;;9.15;;
34146;SDS011;20423;49.448;9.056;2022-12-17T13:55:52;21.13;;;8.80;;
34146;SDS011;20423;49.448;9.056;2022-12-17T13:58:20;26.92;;;9.32;;
34146;SDS011;20423;49.448;9.056;2022-12-17T14:01:02;26.88;;;9.27;;
34146;SDS011;20423;49.448;9.056;2022-12-17T14:03:33;23.00;;;10.80;;
34146;SDS011;20423;49.448;9.056;2022-12-17T14:06:00;23.58;;;10.65;;
34146;SDS011;20423;49.448;9.056;2022-12-17T14:08:27;24.33;;;10.60;;
34146;SDS011;20423;49.448;9.056;2022-12-17T14:10:56;20.85;;;9.77;;
34146;SDS011;20423;49.448;9.056;2022-12-17T14:13:41;23.05;;;10.50;;
34146;SDS011;20423;49.448;9.056;2022-12-17T14:16:13;28.75;;;12.30;;
34146;SDS011;20423;49.448;9.056;2022-12-17T14:18:41;21.38;;;10.95;;
34146;SDS011;20423;49.448;9.056;2022-12-17T14:21:11;25.88;;;11.32;;
34146;SDS011;20423;49.448;9.056;2022-12-17T14:23:37;21.35;;;10.15;;
34146;SDS011;20423;49.448;9.056;2022-12-17T14:26:07;21.95;;;11.00;;
34146;SDS011;20423;49.448;9.056;2022-12-17T14:28:36;23.05;;;11.02;;
34146;SDS011;20423;49.448;9.056;2022-12-17T14:33:39;29.08;;;12.70;;
34146;SDS011;20423;49.448;9.056;2022-12-17T14:36:17;26.80;;;12.32;;
34146;SDS011;20423;49.448;9.056;2022-12-17T14:39:02;28.95;;;11.80;;
34146;SDS011;20423;49.448;9.056;2022-12-17T14:41:40;26.95;;;11.90;;
34146;SDS011;20423;49.448;9.056;2022-12-17T14:44:25;23.10;;;12.23;;
34146;SDS011;20423;49.448;9.056;2022-12-17T14:46:54;28.65;;;12.25;;
34146;SDS011;20423;49.448;9.056;2022-12-17T14:49:53;29.67;;;12.40;;
34146;SDS011;20423;49.448;9.056;2022-12-17T14:52:46;27.92;;;11.40;;
34146;SDS011;20423;49.448;9.056;2022-12-17T14:55:22;26.33;;;13.02;;
34146;SDS011;20423;49.448;9.056;2022-12-17T15:03:41;34.88;;;12.95;;
34146;SDS011;20423;49.448;9.056;2022-12-17T15:06:10;30.70;;;13.07;;
34146;SDS011;20423;49.448;9.056;2022-12-17T15:08:44;37.87;;;15.43;;
34146;SDS011;20423;49.448;9.056;2022-12-17T15:13:39;30.50;;;14.00;;
34146;SDS011;20423;49.448;9.056;2022-12-17T15:16:05;28.52;;;13.60;;
34146;SDS011;20423;49.448;9.056;2022-12-17T15:18:30;30.98;;;13.85;;
34146;SDS011;20423;49.448;9.056;2022-12-17T15:20:56;33.88;;;14.52;;
34146;SDS011;20423;49.448;9.056;2022-12-17T15:23:22;37.33;;;15.07;;
34146;SDS011;20423;49.448;9.056;2022-12-17T15:25:49;40.35;;;12.82;;
34146;SDS011;20423;49.448;9.056;2022-12-17T15:28:17;37.00;;;14.02;;
34146;SDS011;20423;49.448;9.056;2022-12-17T15:30:43;30.20;;;13.20;;
34146;SDS011;20423;49.448;9.056;2022-12-17T15:33:10;37.25;;;14.20;;
34146;SDS011;20423;49.448;9.056;2022-12-17T15:35:37;34.83;;;14.07;;
34146;SDS011;20423;49.448;9.056;2022-12-17T15:38:03;34.28;;;13.98;;
34146;SDS011;20423;49.448;9.056;2022-12-17T15:40:30;36.47;;;14.40;;
34146;SDS011;20423;49.448;9.056;2022-12-17T15:42:56;33.42;;;14.10;;
34146;SDS011;20423;49.448;9.056;2022-12-17T15:45:39;38.05;;;15.90;;
34146;SDS011;20423;49.448;9.056;2022-12-17T15:48:07;43.33;;;15.15;;
34146;SDS011;20423;49.448;9.056;2022-12-17T15:50:34;42.45;;;15.23;;
34146;SDS011;20423;49.448;9.056;2022-12-17T15:53:00;35.08;;;14.63;;
34146;SDS011;20423;49.448;9.056;2022-12-17T15:55:25;46.78;;;16.00;;
34146;SDS011;20423;49.448;9.056;2022-12-17T15:57:51;47.60;;;16.67;;
34146;SDS011;20423;49.448;9.056;2022-12-17T16:00:17;44.83;;;16.63;;
34146;SDS011;20423;49.448;9.056;2022-12-17T16:02:43;41.90;;;17.70;;
34146;SDS011;20423;49.448;9.056;2022-12-17T16:05:09;41.97;;;17.67;;
34146;SDS011;20423;49.448;9.056;2022-12-17T16:07:34;38.30;;;16.63;;
34146;SDS011;20423;49.448;9.056;2022-12-17T16:10:02;46.72;;;17.08;;
34146;SDS011;20423;49.448;9.056;2022-12-17T16:12:29;44.80;;;17.23;;
34146;SDS011;20423;49.448;9.056;2022-12-17T16:14:54;42.25;;;17.33;;
34146;SDS011;20423;49.448;9.056;2022-12-17T16:17:20;40.17;;;17.45;;
34146;SDS011;20423;49.448;9.056;2022-12-17T16:19:45;42.30;;;18.02;;
34146;SDS011;20423;49.448;9.056;2022-12-17T16:22:11;45.17;;;17.02;;
34146;SDS011;20423;49.448;9.056;2022-12-17T16:24:37;42.63;;;18.33;;
34146;SDS011;20423;49.448;9.056;2022-12-17T16:27:20;52.67;;;18.73;;
34146;SDS011;20423;49.448;9.056;2022-12-17T16:29:45;51.53;;;18.70;;
34146;SDS011;20423;49.448;9.056;2022-12-17T16:32:12;55.65;;;20.95;;
34146;SDS011;20423;49.448;9.056;2022-12-17T16:34:42;54.15;;;22.10;;
34146;SDS011;20423;49.448;9.056;2022-12-17T16:37:08;45.83;;;20.42;;
34146;SDS011;20423;49.448;9.056;2022-12-17T16:39:34;66.93;;;24.15;;
34146;SDS011;20423;49.448;9.056;2022-12-17T16:42:00;64.38;;;24.73;;
34146;SDS011;20423;49.448;9.056;2022-12-17T16:44:26;73.47;;;26.67;;
34146;SDS011;20423;49.448;9.056;2022-12-17T16:46:51;70.00;;;28.55;;
34146;SDS011;20423;49.448;9.056;2022-12-17T16:49:18;69.20;;;25.92;;
34146;SDS011;20423;49.448;9.056;2022-12-17T16:51:45;68.90;;;27.52;;
34146;SDS011;20423;49.448;9.056;2022-12-17T16:54:14;56.17;;;24.25;;
34146;SDS011;20423;49.448;9.056;2022-12-17T16:56:41;62.88;;;26.50;;
34146;SDS011;20423;49.448;9.056;2022-12-17T16:59:08;64.00;;;26.27;;
34146;SDS011;20423;49.448;9.056;2022-12-17T17:01:35;69.68;;;25.58;;
34146;SDS011;20423;49.448;9.056;2022-12-17T17:04:03;62.55;;;25.65;;
34146;SDS011;20423;49.448;9.056;2022-12-17T17:06:30;60.95;;;24.00;;